Airfield :
LOGIN :

Register | Disclaimer

   EN    FR    IT 

 










Legend :    VFR   Marginal VFR   IFR   Intensive IFR   Very Intensive IFR
Visi :
Ceiling :
>= 8 km
>= 3000ft
5 to 8 km
1000 to 3000 ft
1500m to 5 km
500 to 1000 ft
800 to 1500m
200 to 500 ft
< 800m
< 200 ft
Symbols :   Thunderstorms  Fog  Heavy snow  Heavy precipitations  Wind > 20 kt
SIGMETs :     Misc.  Thunderstorms  Icing  Turbulence  Mountain Waves  Volcanic Ashes







- Airport Elevation : 0 ft


ENOA - Oseberg A Platform

CURRENT METAR :
  • 210720Z 22008KT 9999 FEW030 SCT130 12/07 Q1021 W///S4

EXPIRED METARs :
  • 210650Z 23008KT 9999 FEW020 SCT030 BKN130 12/07 Q1021 W///S4
  • 210550Z 23009KT 9999 BKN030 12/07 Q1021 W///S4
  • 210520Z 24008KT 9999 BKN030 12/07 Q1021 W///S4
  • 210450Z 28008KT 9999 SCT020 BKN030 12/07 Q1020 W///S4

TAF ENOA
Valid from the 21 at 06:00 until the 22 at 06:00 UTC


2106/2206 28015KT 9999 FEW020 BKN030
BECMG 2107/2109 21010KT
BECMG 2112/2115 17020KT
BECMG 2121/2124 16030KT
TEMPO 2123/2203 4000 RADZ BKN012
TEMPO 2203/2206 4000 SHRA BKN010 SCT015CB
No reported NOTAMs for that airfield.



MET'MAP, your aeronautical weather chart ! - Copyright ORBIFLY December 2007 - Disclaimer

ORBIFLY MET'MAP TEAM :

Programming & Development : Alexandra Zaïnal
Concept & Development : Baudouin d'Aumeries
Co-Development & Prog : Marc-Olivier Méhu
Technical & hardware support : Manuel Goepfert

Contact : metmap@orbifly.com




SOURCES & CREDITS :

   NOAA